< < Back
Terminal Aerodrome Forecast


Current Version              Previous Versions:   1  2  3  4  5  6  7  8  9  

Terminal Aerodrome Forecast

140
FTUS42 KJAX 061622 AAE
TAFSSI
TAF AMD
KSSI 061622Z 0616/0712 03012KT P6SM BKN035
     FM061900 03015G25KT P6SM VCSH SCT020 BKN040
     FM062300 03014G20KT P6SM SCT030 BKN250
     FM070300 36012KT P6SM SCT040 SCT250=

Latest METAR

156
SAUS70 KWBC 070700 RRP
MTRSSI
METAR KSSI 070653Z AUTO 33003KT 10SM CLR 17/16 A3003 RMK AO2 SLP168
T01720161


USA.gov is the U.S. government's official web portal to all federal, state and local government web resources and services.